Quantico MCAF /Turner field
KNYG : now visible

Airfield :











YOU CAN JOIN US ON...

 
LOGIN :

Register | Disclaimer

   EN    FR    IT 

 









Legend :    VFR   Marginal VFR   IFR   Intensive IFR   Very Intensive IFR
Visi :
Ceiling :
>= 8 km
>= 3000ft
5 to 8 km
1000 to 3000 ft
1500m to 5 km
500 to 1000 ft
800 to 1500m
200 to 500 ft
< 800m
< 200 ft
Symbols :   Thunderstorms  Fog  Heavy snow  Heavy precipitations  Wind > 20 kt






- Airport Elevation : 10 ft


KNYG - Quantico MCAF /Turner field

CURRENT METAR :
  • 150856Z AUTO 24005KT 8SM FEW016 OVC080 20/16 A2997 RMK AO2 RAE02 SLP151 P0000 60000 T02000161 58010

EXPIRED METARs :
  • 150756Z AUTO 14008KT 8SM -RA OVC085 22/17 A2999 RMK AO2 SLP155 P0000 T02170172
  • 150656Z AUTO 13010KT 8SM -RA BKN065 OVC100 22/17 A3000 RMK AO2 RAB45 SLP160 P0000 T02170172

Expired Forecast.
KZDC FIR / North America



MET'MAP, your aeronautical weather chart ! - Copyright ORBIFLY December 2007 - Disclaimer

ORBIFLY MET'MAP TEAM :

Programming & Development : Alexandra Zaïnal
Original concept : Baudouin d'Aumeries
Technical & hardware support : Manuel Goepfert
Assistance : Marc-Olivier Méhu




SOURCES & CREDITS :

   NOAA       Earth
Advisory